Terrenceville, Canada
Current Conditions -  °F | °C
As of 7:00 AM on Thursday 23 Oct 2014 (Local Time) from CYQX Reporting Station
Broken Clouds Broken Clouds  
Wind Chill: 32°   Ceiling: 25000
Heat Index: 37°   Visibility: 20mi
Dew Point: 36°   Wind: 7mph
Humidity: 93%   Direction: 220°SW
Pressure: 30.4"   Gusts: NA
Location:  47.68°N, 54.72°W
Report Text: CYQX 230900Z 22006KT 20SM FEW030 BKN250 03/02 A3040 RMK SC1CI5 SLP300
Loading
Personal Weather Stations






























Interactive Weather Map
Tropical Storm Tracking
New forecast layout! Learn more

10-Day Weather Forecast

Advertisements
Track Severe Weather on mobile